createdAt,value
2019-01-15T00:02:29.998Z,12.87
2019-01-15T00:05:01.400Z,8.10
2019-01-15T00:07:32.636Z,9.63
2019-01-15T00:10:04.895Z,14.53
2019-01-15T00:12:36.187Z,12.10
2019-01-15T00:15:08.345Z,10.43
2019-01-15T00:17:39.602Z,7.30
2019-01-15T00:20:10.923Z,13.07
2019-01-15T00:22:42.375Z,13.87
2019-01-15T00:25:13.634Z,7.57
2019-01-15T00:27:45.000Z,11.50
2019-01-15T00:30:17.630Z,7.83
2019-01-15T00:32:49.966Z,8.37
2019-01-15T00:35:22.436Z,13.80
2019-01-15T00:37:53.635Z,11.57
2019-01-15T00:40:25.007Z,11.73
2019-01-15T00:42:56.213Z,8.77
2019-01-15T00:45:27.489Z,12.80
2019-01-15T00:47:58.636Z,7.97
2019-01-15T00:50:29.786Z,8.30
2019-01-15T00:53:01.439Z,10.83
2019-01-15T00:55:32.565Z,10.37
2019-01-15T00:58:04.020Z,5.73
2019-01-15T01:00:35.393Z,7.73
2019-01-15T01:03:06.828Z,8.20
2019-01-15T01:05:38.015Z,5.63
2019-01-15T01:08:09.250Z,8.23
2019-01-15T01:10:40.493Z,7.63
2019-01-15T01:13:11.698Z,7.00
2019-01-15T01:15:43.985Z,8.27
2019-01-15T01:18:15.278Z,7.87
2019-01-15T01:20:46.455Z,8.53
2019-01-15T01:23:17.740Z,7.40
2019-01-15T01:25:48.939Z,9.87
2019-01-15T01:28:20.148Z,7.90
2019-01-15T01:30:51.327Z,6.87
2019-01-15T01:33:22.514Z,6.03
2019-01-15T01:35:53.856Z,5.93
2019-01-15T01:38:25.212Z,12.47
2019-01-15T01:40:57.551Z,12.20
2019-01-15T01:43:28.760Z,4.30
2019-01-15T01:45:59.881Z,7.63
2019-01-15T01:48:31.173Z,6.67
2019-01-15T01:51:02.444Z,6.60
2019-01-15T01:53:33.605Z,7.83
2019-01-15T01:56:04.907Z,9.67
2019-01-15T01:58:36.157Z,5.93
2019-01-15T02:01:07.542Z,5.50
2019-01-15T02:03:38.893Z,6.50
2019-01-15T02:06:10.165Z,7.30
2019-01-15T02:08:41.501Z,5.90
2019-01-15T02:11:12.592Z,5.93
2019-01-15T02:13:44.801Z,6.70
2019-01-15T02:16:16.178Z,10.47
2019-01-15T02:18:47.466Z,5.53
2019-01-15T02:21:18.850Z,5.03
2019-01-15T02:23:50.226Z,4.73
2019-01-15T02:26:21.630Z,7.03
2019-01-15T02:28:52.813Z,11.03
2019-01-15T02:31:24.084Z,6.93
2019-01-15T02:33:55.273Z,7.67
2019-01-15T02:36:26.571Z,11.20
2019-01-15T02:38:57.698Z,10.30
2019-01-15T02:41:29.081Z,8.73
2019-01-15T02:44:00.284Z,9.17
2019-01-15T02:46:31.396Z,9.23
2019-01-15T02:49:02.635Z,6.23
2019-01-15T02:51:33.807Z,7.30
2019-01-15T02:54:05.221Z,10.13
2019-01-15T02:56:36.365Z,8.57
2019-01-15T02:59:07.697Z,7.13
2019-01-15T03:01:39.062Z,7.27
2019-01-15T03:04:10.303Z,7.77
2019-01-15T03:06:42.646Z,6.50
2019-01-15T03:09:13.927Z,10.80
2019-01-15T03:11:45.247Z,6.90
2019-01-15T03:14:16.341Z,3.97
2019-01-15T03:16:47.495Z,5.40
2019-01-15T03:19:18.697Z,7.80
2019-01-15T03:21:49.900Z,10.07
2019-01-15T03:24:21.221Z,5.30
2019-01-15T03:26:52.486Z,7.10
2019-01-15T03:29:23.814Z,8.47
2019-01-15T03:31:55.023Z,6.80
2019-01-15T03:34:26.347Z,6.17
2019-01-15T03:36:57.557Z,7.20
2019-01-15T03:39:28.770Z,10.37
2019-01-15T03:42:00.083Z,7.70
2019-01-15T03:44:31.204Z,7.83
2019-01-15T03:47:02.436Z,7.53
2019-01-15T03:49:33.700Z,6.53
2019-01-15T03:52:05.173Z,6.93
2019-01-15T03:54:36.429Z,8.47
2019-01-15T03:57:07.527Z,5.90
2019-01-15T03:59:38.829Z,9.63
2019-01-15T04:02:10.884Z,7.07
2019-01-15T04:04:42.673Z,12.63
2019-01-15T04:07:14.098Z,8.67
2019-01-15T04:09:45.403Z,7.83
2019-01-15T04:12:16.677Z,7.80
2019-01-15T04:14:47.847Z,7.80
2019-01-15T04:17:19.115Z,5.60
2019-01-15T04:19:50.293Z,11.37
2019-01-15T04:22:21.432Z,10.63
2019-01-15T04:24:52.640Z,6.80
2019-01-15T04:27:23.947Z,9.13
2019-01-15T04:29:55.029Z,5.70
2019-01-15T04:32:26.172Z,5.80
2019-01-15T04:34:58.270Z,5.60
2019-01-15T04:37:29.526Z,11.03
2019-01-15T04:40:00.691Z,7.77
2019-01-15T04:42:31.938Z,5.90
2019-01-15T04:45:03.253Z,12.27
2019-01-15T04:47:34.418Z,9.73
2019-01-15T04:50:07.242Z,7.73
2019-01-15T04:52:39.779Z,8.20
2019-01-15T04:55:11.633Z,7.90
2019-01-15T04:57:43.070Z,11.67
2019-01-15T05:00:16.538Z,11.10
2019-01-15T05:02:47.987Z,7.40
2019-01-15T05:05:20.510Z,7.40
2019-01-15T05:07:51.775Z,13.10
2019-01-15T05:10:23.247Z,7.87
2019-01-15T05:12:54.452Z,12.10
2019-01-15T05:15:25.970Z,8.47
2019-01-15T05:17:56.933Z,10.40
2019-01-15T05:20:28.049Z,7.63
2019-01-15T05:22:59.200Z,6.67
2019-01-15T05:25:30.493Z,13.50
2019-01-15T05:28:01.739Z,13.53
2019-01-15T05:30:33.134Z,13.80
2019-01-15T05:33:04.462Z,17.67
2019-01-15T05:35:36.647Z,11.67
2019-01-15T05:38:07.962Z,11.77
2019-01-15T05:40:39.255Z,11.63
2019-01-15T05:43:10.326Z,8.93
2019-01-15T05:45:44.095Z,13.00
2019-01-15T05:48:28.622Z,8.80
2019-01-15T05:51:21.904Z,11.80
2019-01-15T05:53:52.893Z,12.33
2019-01-15T05:56:24.192Z,11.50
2019-01-15T05:58:55.411Z,13.07
2019-01-15T06:01:26.410Z,12.57
2019-01-15T06:03:57.629Z,11.40
2019-01-15T06:06:28.806Z,18.50
2019-01-15T06:09:00.079Z,12.70
2019-01-15T06:11:31.398Z,12.07
2019-01-15T06:14:02.402Z,16.07
2019-01-15T06:16:33.605Z,16.13
2019-01-15T06:19:04.820Z,16.33
2019-01-15T06:21:36.214Z,10.63
2019-01-15T06:24:07.462Z,10.23
2019-01-15T06:26:38.561Z,12.13
2019-01-15T06:29:10.147Z,12.30
2019-01-15T06:31:41.431Z,13.63
2019-01-15T06:34:13.128Z,15.20
2019-01-15T06:36:44.370Z,13.10
2019-01-15T06:39:15.540Z,12.33
2019-01-15T06:41:47.730Z,16.67
2019-01-15T06:44:19.076Z,12.90
2019-01-15T06:46:52.439Z,18.07
2019-01-15T06:49:23.454Z,10.87
2019-01-15T06:51:54.743Z,12.43
2019-01-15T06:54:25.935Z,14.87
2019-01-15T06:56:57.153Z,20.40
2019-01-15T06:59:28.402Z,14.93
2019-01-15T07:01:59.583Z,9.00
2019-01-15T07:04:30.675Z,18.57
2019-01-15T07:07:01.972Z,10.67
2019-01-15T07:09:33.296Z,12.30
2019-01-15T07:12:04.749Z,12.00
2019-01-15T07:14:35.756Z,14.03
2019-01-15T07:17:07.016Z,16.50
2019-01-15T07:19:38.289Z,9.90
2019-01-15T07:22:09.584Z,10.87
2019-01-15T07:24:40.883Z,13.90
2019-01-15T07:27:12.129Z,10.47
2019-01-15T07:29:43.546Z,13.47
2019-01-15T07:32:14.791Z,14.43
2019-01-15T07:34:45.821Z,10.27
2019-01-15T07:37:17.125Z,13.20
2019-01-15T07:39:48.281Z,18.70
2019-01-15T07:42:19.586Z,11.60
2019-01-15T07:44:50.611Z,11.87
2019-01-15T07:47:21.962Z,8.07
2019-01-15T07:49:53.237Z,9.83
2019-01-15T07:52:24.427Z,12.90
2019-01-15T07:54:55.507Z,9.93
2019-01-15T07:57:26.839Z,11.83
2019-01-15T07:59:57.973Z,10.00
2019-01-15T08:02:29.142Z,13.90
2019-01-15T08:05:00.305Z,16.57
2019-01-15T08:07:31.494Z,10.60
2019-01-15T08:10:02.819Z,10.17
2019-01-15T08:12:34.075Z,10.80
2019-01-15T08:15:06.440Z,6.97
2019-01-15T08:17:37.940Z,8.70
2019-01-15T08:20:09.984Z,9.00
2019-01-15T08:22:43.242Z,12.20
2019-01-15T08:25:14.788Z,10.97
2019-01-15T08:27:46.058Z,13.77
2019-01-15T08:30:28.742Z,6.83
2019-01-15T08:32:59.886Z,13.17
2019-01-15T08:35:31.607Z,18.07
2019-01-15T08:38:02.891Z,8.37
2019-01-15T08:40:33.997Z,11.10
2019-01-15T08:43:05.601Z,6.17
2019-01-15T08:45:36.768Z,6.30
2019-01-15T08:48:22.097Z,8.90
2019-01-15T08:50:54.062Z,11.33
2019-01-15T08:53:25.873Z,8.83
2019-01-15T08:55:58.375Z,10.23
2019-01-15T08:58:29.564Z,9.53
2019-01-15T09:01:00.803Z,10.07
2019-01-15T09:03:31.996Z,11.27
2019-01-15T09:06:03.339Z,11.03
2019-01-15T09:08:34.823Z,10.67
2019-01-15T09:11:06.420Z,11.87
2019-01-15T09:13:37.846Z,10.43
2019-01-15T09:16:09.100Z,10.67
2019-01-15T09:18:40.463Z,13.67
2019-01-15T09:21:11.729Z,10.03
2019-01-15T09:23:42.975Z,12.53
2019-01-15T09:26:15.420Z,7.50
2019-01-15T09:28:46.780Z,11.73
2019-01-15T09:31:18.053Z,11.40
2019-01-15T09:33:49.408Z,10.07
2019-01-15T09:36:20.528Z,10.03
2019-01-15T09:38:51.804Z,9.77
2019-01-15T09:41:22.956Z,6.47
2019-01-15T09:43:54.055Z,9.30
2019-01-15T09:46:25.486Z,9.47
2019-01-15T09:48:56.551Z,9.90
2019-01-15T09:51:27.753Z,8.63
2019-01-15T09:53:59.120Z,10.63
2019-01-15T09:56:30.284Z,7.90
2019-01-15T09:59:01.636Z,12.40
2019-01-15T10:01:32.736Z,8.60
2019-01-15T10:04:04.005Z,13.03
2019-01-15T10:06:36.308Z,7.93
2019-01-15T10:09:09.893Z,7.67
2019-01-15T10:11:41.023Z,12.83
2019-01-15T10:14:12.211Z,10.63
2019-01-15T10:16:43.339Z,9.53
2019-01-15T10:19:14.585Z,9.73
2019-01-15T10:21:46.842Z,8.33
2019-01-15T10:24:18.029Z,8.37
2019-01-15T10:26:49.222Z,10.40
2019-01-15T10:29:22.229Z,14.20
2019-01-15T10:32:37.488Z,9.80
2019-01-15T10:35:22.408Z,9.07
2019-01-15T10:37:53.608Z,8.90
2019-01-15T10:40:26.053Z,9.50
2019-01-15T10:42:57.225Z,10.93
2019-01-15T10:45:28.579Z,13.03
2019-01-15T10:47:59.832Z,8.60
2019-01-15T10:50:30.970Z,12.97
2019-01-15T10:53:02.106Z,9.63
2019-01-15T10:55:33.465Z,12.17
2019-01-15T10:58:04.838Z,7.47
2019-01-15T11:00:36.250Z,6.47
2019-01-15T11:03:07.407Z,9.33
2019-01-15T11:05:38.710Z,10.20
2019-01-15T11:08:10.032Z,10.33
2019-01-15T11:10:41.348Z,8.50
2019-01-15T11:13:12.664Z,11.50
2019-01-15T11:15:43.775Z,7.97
2019-01-15T11:18:16.105Z,5.27
2019-01-15T11:20:47.354Z,7.70
2019-01-15T11:23:18.590Z,14.30
2019-01-15T11:25:51.360Z,7.20
2019-01-15T11:28:22.684Z,9.53
2019-01-15T11:30:54.023Z,8.17
2019-01-15T11:33:25.424Z,14.50
2019-01-15T11:35:56.782Z,7.97
2019-01-15T11:38:28.118Z,7.63
2019-01-15T11:40:59.447Z,8.43
2019-01-15T11:43:30.634Z,13.53
2019-01-15T11:46:01.966Z,12.67
2019-01-15T11:48:33.166Z,8.87
2019-01-15T11:51:04.446Z,8.57
2019-01-15T11:53:35.617Z,10.97
2019-01-15T11:56:07.017Z,8.83
2019-01-15T11:58:39.239Z,12.67
2019-01-15T12:01:19.337Z,12.27
2019-01-15T12:04:08.306Z,12.57
2019-01-15T12:07:07.712Z,7.77
2019-01-15T12:09:56.743Z,9.40
2019-01-15T12:13:05.329Z,8.43
2019-01-15T12:15:55.319Z,8.47
2019-01-15T12:18:37.805Z,10.63
2019-01-15T12:21:42.964Z,12.97
2019-01-15T12:24:31.595Z,8.40
2019-01-15T12:27:12.166Z,14.10
2019-01-15T12:30:05.326Z,13.30
2019-01-15T12:32:56.396Z,8.87
2019-01-15T12:35:41.956Z,11.40
2019-01-15T12:38:30.598Z,11.77
2019-01-15T12:41:19.503Z,9.53
2019-01-15T12:44:21.578Z,10.27
2019-01-15T12:47:06.319Z,15.40
2019-01-15T12:49:55.143Z,9.17
2019-01-15T12:52:44.026Z,9.27
2019-01-15T12:55:47.449Z,8.70
2019-01-15T12:58:36.082Z,10.60
2019-01-15T13:01:36.026Z,9.20
2019-01-15T13:04:26.280Z,10.93
2019-01-15T13:07:16.551Z,15.47
2019-01-15T13:10:22.933Z,15.47
2019-01-15T13:13:13.043Z,10.70
2019-01-15T13:16:03.005Z,15.73
2019-01-15T13:18:53.079Z,11.90
2019-01-15T13:21:47.756Z,10.90
2019-01-15T13:24:35.217Z,13.33
2019-01-15T13:27:18.667Z,10.77
2019-01-15T13:30:08.831Z,12.50
2019-01-15T13:33:13.006Z,9.70
2019-01-15T13:36:04.590Z,10.03
2019-01-15T13:38:57.883Z,12.40
2019-01-15T13:41:45.435Z,11.37
2019-01-15T13:44:34.335Z,16.80
2019-01-15T13:47:36.452Z,13.47
2019-01-15T13:50:36.827Z,14.30
2019-01-15T13:53:36.051Z,10.50
2019-01-15T13:56:26.241Z,14.03
2019-01-15T13:59:11.610Z,12.37
2019-01-15T14:02:10.645Z,15.10
2019-01-15T14:05:03.760Z,16.17
2019-01-15T14:08:03.117Z,12.43
2019-01-15T14:10:59.410Z,16.37
2019-01-15T14:13:48.115Z,14.70
2019-01-15T14:16:50.511Z,12.37
2019-01-15T14:19:40.696Z,20.97
2019-01-15T14:22:29.911Z,16.53
2019-01-15T14:25:26.243Z,16.77
2019-01-15T14:28:22.267Z,16.53
2019-01-15T14:31:11.171Z,16.23
2019-01-15T14:34:07.898Z,12.87
2019-01-15T14:36:53.768Z,15.00
2019-01-15T14:39:44.407Z,14.03
2019-01-15T14:42:23.227Z,10.20
2019-01-15T14:45:16.024Z,12.10
2019-01-15T14:48:16.832Z,17.73
2019-01-15T14:51:22.136Z,11.20
2019-01-15T14:54:21.209Z,10.97
2019-01-15T14:57:14.634Z,13.73
2019-01-15T15:00:07.445Z,10.27
2019-01-15T15:02:57.985Z,14.53
2019-01-15T15:05:50.912Z,12.70
2019-01-15T15:08:40.001Z,11.00
2019-01-15T15:11:33.241Z,14.13
2019-01-15T15:14:23.599Z,17.40
2019-01-15T15:17:18.783Z,13.23
2019-01-15T15:20:09.122Z,17.00
2019-01-15T15:23:05.128Z,11.50
2019-01-15T15:26:04.386Z,14.87
2019-01-15T15:28:53.521Z,17.83
2019-01-15T15:32:01.931Z,14.90
2019-01-15T15:34:44.218Z,16.47
2019-01-15T15:37:28.277Z,12.73
2019-01-15T15:40:16.815Z,11.10
2019-01-15T15:43:05.480Z,9.43
2019-01-15T15:45:58.408Z,11.10
2019-01-15T15:48:57.551Z,11.47
2019-01-15T15:51:47.472Z,15.73
2019-01-15T15:54:47.621Z,12.30
2019-01-15T15:57:40.876Z,10.53
2019-01-15T16:00:32.127Z,10.07
2019-01-15T16:03:25.120Z,11.43
2019-01-15T16:06:07.004Z,17.47
2019-01-15T16:08:49.545Z,14.13
2019-01-15T16:11:30.823Z,11.13
2019-01-15T16:14:18.064Z,11.33
2019-01-15T16:16:58.531Z,14.03
2019-01-15T16:19:48.546Z,20.23
2019-01-15T16:22:30.633Z,16.40
2019-01-15T16:25:36.212Z,18.97
2019-01-15T16:28:30.316Z,17.50
2019-01-15T16:31:29.726Z,23.07
2019-01-15T16:34:23.522Z,17.67
2019-01-15T16:37:16.559Z,18.63
2019-01-15T16:40:06.726Z,25.97
2019-01-15T16:42:48.638Z,18.97
2019-01-15T16:45:39.954Z,17.40
2019-01-15T16:48:32.948Z,20.10
2019-01-15T16:51:21.906Z,14.37
2019-01-15T16:54:24.446Z,16.93
2019-01-15T16:57:14.212Z,16.10
2019-01-15T17:00:22.667Z,15.00
2019-01-15T17:03:18.801Z,18.70
2019-01-15T17:06:14.818Z,19.30
2019-01-15T17:09:12.532Z,16.83
2019-01-15T17:11:56.443Z,17.10
2019-01-15T17:14:45.078Z,20.37
2019-01-15T17:17:34.650Z,18.93
2019-01-15T17:20:26.302Z,15.20
2019-01-15T17:23:13.828Z,20.27
2019-01-15T17:26:06.977Z,17.23
2019-01-15T17:29:00.267Z,19.10
2019-01-15T17:31:53.708Z,17.17
2019-01-15T17:34:46.660Z,13.07
2019-01-15T17:37:45.625Z,31.30
2019-01-15T17:40:30.144Z,20.37
2019-01-15T17:43:18.870Z,16.40
2019-01-15T17:46:08.065Z,24.13
2019-01-15T17:49:10.715Z,22.47
2019-01-15T17:52:06.876Z,24.33
2019-01-15T17:54:55.534Z,24.60
2019-01-15T17:57:58.149Z,16.00
2019-01-15T18:00:48.256Z,24.13
2019-01-15T18:03:29.820Z,22.00
2019-01-15T18:06:22.697Z,24.60
2019-01-15T18:09:13.697Z,25.73
2019-01-15T18:12:21.759Z,31.37
2019-01-15T18:15:11.902Z,23.43
2019-01-15T18:18:08.021Z,16.97
2019-01-15T18:20:57.837Z,20.47
2019-01-15T18:23:46.905Z,16.13
2019-01-15T18:26:41.455Z,19.60
2019-01-15T18:29:43.583Z,23.00
2019-01-15T18:32:33.743Z,22.20
2019-01-15T18:35:27.465Z,18.77
2019-01-15T18:38:16.190Z,18.27
2019-01-15T18:41:09.360Z,11.43
2019-01-15T18:44:05.341Z,18.50
2019-01-15T18:46:55.943Z,20.17
2019-01-15T18:50:01.786Z,19.07
2019-01-15T18:52:51.942Z,18.50
2019-01-15T18:55:42.144Z,22.77
2019-01-15T18:58:25.654Z,15.27
2019-01-15T19:01:14.466Z,21.37
2019-01-15T19:04:03.180Z,27.17
2019-01-15T19:07:08.330Z,20.23
2019-01-15T19:09:57.061Z,14.67
2019-01-15T19:12:56.165Z,20.23
2019-01-15T19:15:49.163Z,19.10
2019-01-15T19:18:39.269Z,20.57
2019-01-15T19:21:21.143Z,20.70
2019-01-15T19:24:29.503Z,20.00
2019-01-15T19:27:19.667Z,20.43
2019-01-15T19:30:13.889Z,17.63
2019-01-15T19:33:09.915Z,17.53
2019-01-15T19:36:03.998Z,19.97
2019-01-15T19:38:56.074Z,19.73
2019-01-15T19:41:45.108Z,23.03
2019-01-15T19:44:47.398Z,12.90
2019-01-15T19:47:36.632Z,21.37
2019-01-15T19:50:26.805Z,21.30
2019-01-15T19:53:12.311Z,17.90
2019-01-15T19:56:11.546Z,19.93
2019-01-15T19:59:01.809Z,22.50
2019-01-15T20:01:55.048Z,21.60
2019-01-15T20:04:45.163Z,22.33
2019-01-15T20:07:53.584Z,19.37
2019-01-15T20:10:37.781Z,24.40
2019-01-15T20:13:26.263Z,23.13
2019-01-15T20:16:22.436Z,23.00
2019-01-15T20:19:11.039Z,18.63
2019-01-15T20:21:59.945Z,14.77
2019-01-15T20:24:52.934Z,19.70
2019-01-15T20:27:43.372Z,16.60
2019-01-15T20:30:42.252Z,18.30
2019-01-15T20:33:32.396Z,14.90
2019-01-15T20:36:22.589Z,14.80
2019-01-15T20:39:30.976Z,19.73
2019-01-15T20:42:19.931Z,14.30
2019-01-15T20:45:12.612Z,12.93
2019-01-15T20:48:01.538Z,16.93
2019-01-15T20:51:03.632Z,17.43
2019-01-15T20:53:51.198Z,20.83
2019-01-15T20:56:39.774Z,18.57
2019-01-15T20:59:32.655Z,19.57
2019-01-15T21:02:25.496Z,15.77
2019-01-15T21:05:24.743Z,15.63
2019-01-15T21:08:23.709Z,16.40
2019-01-15T21:11:12.481Z,24.60
2019-01-15T21:14:11.358Z,17.83
2019-01-15T21:17:00.239Z,44.73
2019-01-15T21:19:49.152Z,18.70
2019-01-15T21:22:39.342Z,12.80
2019-01-15T21:25:19.594Z,14.30
2019-01-15T21:28:10.835Z,14.97
2019-01-15T21:30:55.362Z,15.30
2019-01-15T21:33:51.440Z,15.63
2019-01-15T21:36:41.522Z,10.60
2019-01-15T21:39:49.843Z,13.33
2019-01-15T21:42:38.403Z,14.87
2019-01-15T21:45:31.467Z,13.67
2019-01-15T21:48:36.736Z,14.33
2019-01-15T21:51:27.062Z,11.60
2019-01-15T21:54:13.578Z,18.83
2019-01-15T21:57:08.366Z,13.27
2019-01-15T22:00:05.559Z,11.40
2019-01-15T22:03:10.004Z,14.50
2019-01-15T22:06:12.580Z,10.40
2019-01-15T22:09:02.707Z,10.73
2019-01-15T22:12:06.022Z,18.60
2019-01-15T22:14:56.145Z,12.30
2019-01-15T22:17:47.576Z,13.10
2019-01-15T22:20:43.938Z,10.57
2019-01-15T22:23:28.533Z,10.40
2019-01-15T22:26:24.653Z,21.83
2019-01-15T22:29:32.959Z,13.13
2019-01-15T22:32:14.499Z,10.90
2019-01-15T22:35:13.727Z,14.50
2019-01-15T22:38:03.792Z,11.20
2019-01-15T22:40:59.945Z,14.67
2019-01-15T22:43:50.021Z,12.93
2019-01-15T22:46:45.164Z,12.87
2019-01-15T22:49:47.406Z,11.73
2019-01-15T22:52:45.022Z,12.93
2019-01-15T22:55:33.290Z,15.43
2019-01-15T22:58:23.542Z,11.50
2019-01-15T23:01:29.757Z,10.83
2019-01-15T23:04:18.138Z,9.40
2019-01-15T23:07:14.337Z,17.87
2019-01-15T23:10:13.427Z,10.27
2019-01-15T23:13:13.445Z,13.53
2019-01-15T23:16:06.740Z,8.13
2019-01-15T23:19:15.039Z,12.70
2019-01-15T23:21:58.602Z,11.00
2019-01-15T23:24:47.046Z,12.30
2019-01-15T23:27:37.262Z,14.60
2019-01-15T23:30:30.316Z,10.57
2019-01-15T23:33:28.061Z,9.97
2019-01-15T23:36:27.095Z,10.97
2019-01-15T23:39:36.707Z,13.10
2019-01-15T23:42:32.618Z,11.37
2019-01-15T23:45:37.853Z,14.93
2019-01-15T23:48:27.893Z,11.47
2019-01-15T23:51:18.965Z,11.63
2019-01-15T23:54:08.889Z,14.37
2019-01-15T23:57:00.583Z,13.77
2019-01-15T23:59:51.615Z,14.70
